createdAt,value
2022-12-27T00:00:49.621Z,0.9
2022-12-27T00:02:50.393Z,0.9
2022-12-27T00:04:49.820Z,0.8
2022-12-27T00:06:49.833Z,0.8
2022-12-27T00:08:49.644Z,0.8
2022-12-27T00:10:50.234Z,0.8
2022-12-27T00:12:49.889Z,0.8
2022-12-27T00:14:49.673Z,0.8
2022-12-27T00:16:50.517Z,0.8
2022-12-27T00:18:50.305Z,0.8
2022-12-27T00:20:49.946Z,1.8
2022-12-27T00:22:49.749Z,1.8
2022-12-27T00:24:50.395Z,1.8
2022-12-27T00:26:50.380Z,0.9
2022-12-27T00:28:50.001Z,0.9
2022-12-27T00:30:49.838Z,0.8
2022-12-27T00:32:49.622Z,0.8
2022-12-27T00:34:49.660Z,0.8
2022-12-27T00:36:49.661Z,0.8
2022-12-27T00:38:50.484Z,0.7
2022-12-27T00:40:50.273Z,0.8
2022-12-27T00:42:50.121Z,0.8
2022-12-27T00:44:49.706Z,0.9
2022-12-27T00:46:49.711Z,0.8
2022-12-27T00:48:50.339Z,0.8
2022-12-27T00:50:50.176Z,0.8
2022-12-27T00:52:49.772Z,0.8
2022-12-27T00:54:50.400Z,0.9
2022-12-27T00:56:50.413Z,0.8
2022-12-27T00:58:49.991Z,0.8
2022-12-27T01:00:49.858Z,0.8
2022-12-27T01:02:49.861Z,0.9
2022-12-27T01:04:50.069Z,0.9
2022-12-27T01:06:50.071Z,0.8
2022-12-27T01:08:49.863Z,0.8
2022-12-27T01:10:49.703Z,0.8
2022-12-27T01:12:50.565Z,0.9
2022-12-27T01:14:50.364Z,0.8
2022-12-27T01:16:50.443Z,0.8
2022-12-27T01:18:50.394Z,0.9
2022-12-27T01:20:49.958Z,0.8
2022-12-27T01:22:49.787Z,0.8
2022-12-27T01:24:50.428Z,0.9
2022-12-27T01:26:49.604Z,0.9
2022-12-27T01:28:50.436Z,0.8
2022-12-27T01:30:50.243Z,0.8
2022-12-27T01:32:50.074Z,0.8
2022-12-27T01:34:50.562Z,0.9
2022-12-27T01:36:49.688Z,0.9
2022-12-27T01:38:50.307Z,0.8
2022-12-27T01:40:50.149Z,0.8
2022-12-27T01:42:49.937Z,0.9
2022-12-27T01:44:50.573Z,0.9
2022-12-27T01:46:49.588Z,0.9
2022-12-27T01:48:50.168Z,0.9
2022-12-27T01:50:49.990Z,0.8
2022-12-27T01:52:49.798Z,0.9
2022-12-27T01:54:49.595Z,0.9
2022-12-27T01:56:50.418Z,0.8
2022-12-27T01:58:50.280Z,0.8
2022-12-27T02:00:49.931Z,0.9
2022-12-27T02:02:50.139Z,0.8
2022-12-27T02:04:50.566Z,0.8
2022-12-27T02:06:50.509Z,1.2
2022-12-27T02:08:50.124Z,1.2
2022-12-27T02:10:49.955Z,0.9
2022-12-27T02:12:50.611Z,0.8
2022-12-27T02:14:50.362Z,0.8
2022-12-27T02:16:50.455Z,0.8
2022-12-27T02:18:50.397Z,0.8
2022-12-27T02:20:50.027Z,0.9
2022-12-27T02:22:49.846Z,0.9
2022-12-27T02:24:49.632Z,0.8
2022-12-27T02:26:49.655Z,0.8
2022-12-27T02:28:50.462Z,0.9
2022-12-27T02:30:50.097Z,0.9
2022-12-27T02:32:50.147Z,0.9
2022-12-27T02:34:50.339Z,0.9
2022-12-27T02:36:50.347Z,0.9
2022-12-27T02:38:50.140Z,0.9
2022-12-27T02:40:49.753Z,0.8
2022-12-27T02:42:49.664Z,0.9
2022-12-27T02:44:50.170Z,0.9
2022-12-27T02:46:50.218Z,0.9
2022-12-27T02:48:49.815Z,0.9
2022-12-27T02:50:49.616Z,0.9
2022-12-27T02:52:50.214Z,0.9
2022-12-27T02:54:49.858Z,0.9
2022-12-27T02:56:50.066Z,0.9
2022-12-27T02:58:49.894Z,0.8
2022-12-27T03:00:50.486Z,0.8
2022-12-27T03:02:50.337Z,0.9
2022-12-27T03:04:49.723Z,0.9
2022-12-27T03:06:49.753Z,0.9
2022-12-27T03:08:49.774Z,0.9
2022-12-27T03:10:49.553Z,0.9
2022-12-27T03:12:50.190Z,0.8
2022-12-27T03:14:50.032Z,0.8
2022-12-27T03:16:50.199Z,0.8
2022-12-27T03:18:49.860Z,0.9
2022-12-27T03:20:49.685Z,0.8
2022-12-27T03:22:50.484Z,0.8
2022-12-27T03:24:50.257Z,0.9
2022-12-27T03:26:50.302Z,1.0
2022-12-27T03:28:50.111Z,0.8
2022-12-27T03:30:49.814Z,0.9
2022-12-27T03:32:49.731Z,0.9
2022-12-27T03:34:49.958Z,0.8
2022-12-27T03:36:49.968Z,0.9
2022-12-27T03:38:49.799Z,0.9
2022-12-27T03:40:50.412Z,0.9
2022-12-27T03:42:50.221Z,0.9
2022-12-27T03:44:50.017Z,0.9
2022-12-27T03:46:50.068Z,0.8
2022-12-27T03:48:49.626Z,0.8
2022-12-27T03:50:50.467Z,1.8
2022-12-27T03:52:50.263Z,1.8
2022-12-27T03:54:50.089Z,0.8
2022-12-27T03:56:50.109Z,0.9
2022-12-27T03:58:49.922Z,0.9
2022-12-27T04:00:50.543Z,0.9
2022-12-27T04:02:50.457Z,0.9
2022-12-27T04:04:50.208Z,0.9
2022-12-27T04:06:50.190Z,1.0
2022-12-27T04:08:50.013Z,0.9
2022-12-27T04:10:49.815Z,0.9
2022-12-27T04:12:50.416Z,0.9
2022-12-27T04:14:50.261Z,0.9
2022-12-27T04:16:50.252Z,0.9
2022-12-27T04:18:50.092Z,0.9
2022-12-27T04:20:49.732Z,0.9
2022-12-27T04:22:50.489Z,0.9
2022-12-27T04:24:50.076Z,0.9
2022-12-27T04:26:50.146Z,0.8
2022-12-27T04:28:50.013Z,0.8
2022-12-27T04:30:49.799Z,0.9
2022-12-27T04:32:49.978Z,0.9
2022-12-27T04:34:50.194Z,1.0
2022-12-27T04:36:50.191Z,1.0
2022-12-27T04:38:49.804Z,0.9
2022-12-27T04:40:50.482Z,0.9
2022-12-27T04:42:50.239Z,0.9
2022-12-27T04:44:50.064Z,0.8
2022-12-27T04:46:50.333Z,0.8
2022-12-27T04:48:50.289Z,0.8
2022-12-27T04:50:50.030Z,0.8
2022-12-27T04:52:49.816Z,0.9
2022-12-27T04:54:50.407Z,1.0
2022-12-27T04:56:50.485Z,0.9
2022-12-27T04:58:50.251Z,0.8
2022-12-27T05:00:49.897Z,0.8
2022-12-27T05:02:49.863Z,0.9
2022-12-27T05:04:50.108Z,0.9
2022-12-27T05:06:50.324Z,0.9
2022-12-27T05:08:50.144Z,0.9
2022-12-27T05:10:49.785Z,0.9
2022-12-27T05:12:49.687Z,0.8
2022-12-27T05:14:50.366Z,0.8
2022-12-27T05:16:50.409Z,0.9
2022-12-27T05:18:50.207Z,0.9
2022-12-27T05:20:49.874Z,0.9
2022-12-27T05:22:49.616Z,0.9
2022-12-27T05:24:50.312Z,0.9
2022-12-27T05:26:49.571Z,0.9
2022-12-27T05:28:50.502Z,0.9
2022-12-27T05:30:50.083Z,4.5
2022-12-27T05:32:49.883Z,5.1
2022-12-27T05:34:50.136Z,2.9
2022-12-27T05:36:50.388Z,2.9
2022-12-27T05:38:50.184Z,2.6
2022-12-27T05:40:49.762Z,2.2
2022-12-27T05:42:50.358Z,4.5
2022-12-27T05:44:50.001Z,5.5
2022-12-27T05:46:50.058Z,5.5
2022-12-27T05:48:50.204Z,2.4
2022-12-27T05:50:49.825Z,3.6
2022-12-27T05:52:49.653Z,3.1
2022-12-27T05:54:50.258Z,3.8
2022-12-27T05:56:50.280Z,3.8
2022-12-27T05:58:50.090Z,3.2
2022-12-27T06:00:49.896Z,3.1
2022-12-27T06:02:50.581Z,3.5
2022-12-27T06:04:50.390Z,3.5
2022-12-27T06:06:50.356Z,3.6
2022-12-27T06:08:49.974Z,3.6
2022-12-27T06:10:49.777Z,3.1
2022-12-27T06:12:49.590Z,3.6
2022-12-27T06:14:50.461Z,3.6
2022-12-27T06:16:49.666Z,2.9
2022-12-27T06:18:49.627Z,4.3
2022-12-27T06:20:50.429Z,3.0
2022-12-27T06:22:50.096Z,3.8
2022-12-27T06:24:49.669Z,3.8
2022-12-27T06:26:49.676Z,3.0
2022-12-27T06:28:50.319Z,3.0
2022-12-27T06:30:49.927Z,4.6
2022-12-27T06:32:49.733Z,4.6
2022-12-27T06:34:49.970Z,3.3
2022-12-27T06:36:50.184Z,3.3
2022-12-27T06:38:49.969Z,4.3
2022-12-27T06:40:49.598Z,6.4
2022-12-27T06:42:50.409Z,6.4
2022-12-27T06:44:50.048Z,3.9
2022-12-27T06:46:50.259Z,3.9
2022-12-27T06:48:50.080Z,6.3
2022-12-27T06:50:49.854Z,4.2
2022-12-27T06:52:50.525Z,4.2
2022-12-27T06:54:50.287Z,4.4
2022-12-27T06:56:50.328Z,4.4
2022-12-27T06:58:49.932Z,4.6
2022-12-27T07:00:49.849Z,4.7
2022-12-27T07:02:49.852Z,4.7
2022-12-27T07:04:49.781Z,6.1
2022-12-27T07:06:49.986Z,8.1
2022-12-27T07:08:49.611Z,6.0
2022-12-27T07:10:50.227Z,3.0
2022-12-27T07:12:50.035Z,3.0
2022-12-27T07:14:49.664Z,3.8
2022-12-27T07:16:49.690Z,4.0
2022-12-27T07:18:50.181Z,4.2
2022-12-27T07:20:49.887Z,5.2
2022-12-27T07:22:50.496Z,5.2
2022-12-27T07:24:50.094Z,6.9
2022-12-27T07:26:50.141Z,4.3
2022-12-27T07:28:49.773Z,5.9
2022-12-27T07:30:50.550Z,5.9
2022-12-27T07:32:50.180Z,4.0
2022-12-27T07:34:50.385Z,5.9
2022-12-27T07:36:50.412Z,5.9
2022-12-27T07:38:50.215Z,4.4
2022-12-27T07:40:50.046Z,4.4
2022-12-27T07:42:49.854Z,4.7
2022-12-27T07:44:50.480Z,4.7
2022-12-27T07:46:50.444Z,7.7
2022-12-27T07:48:50.069Z,6.5
2022-12-27T07:50:49.921Z,4.5
2022-12-27T07:52:50.512Z,4.2
2022-12-27T07:54:50.131Z,4.2
2022-12-27T07:56:50.364Z,3.6
2022-12-27T07:58:49.950Z,8.6
2022-12-27T08:00:49.567Z,4.3
2022-12-27T08:02:50.208Z,4.3
2022-12-27T08:04:49.868Z,5.2
2022-12-27T08:06:50.008Z,4.7
2022-12-27T08:08:49.843Z,4.7
2022-12-27T08:10:50.441Z,4.1
2022-12-27T08:12:50.234Z,6.6
2022-12-27T08:14:49.892Z,4.4
2022-12-27T08:16:49.998Z,6.8
2022-12-27T08:18:49.899Z,6.8
2022-12-27T08:20:49.725Z,4.6
2022-12-27T08:22:50.523Z,4.6
2022-12-27T08:24:50.337Z,7.5
2022-12-27T08:26:50.387Z,3.8
2022-12-27T08:28:49.979Z,4.3
2022-12-27T08:30:49.815Z,4.3
2022-12-27T08:32:49.791Z,6.5
2022-12-27T08:34:50.025Z,4.6
2022-12-27T08:36:56.644Z,5.4
2022-12-27T08:38:49.869Z,5.4
2022-12-27T08:40:49.685Z,3.5
2022-12-27T08:42:50.274Z,3.5
2022-12-27T08:44:50.110Z,4.6
2022-12-27T08:46:50.100Z,5.4
2022-12-27T08:48:49.975Z,5.4
2022-12-27T08:50:49.743Z,4.7
2022-12-27T08:52:50.529Z,4.1
2022-12-27T08:54:50.141Z,5.4
2022-12-27T08:56:50.208Z,5.0
2022-12-27T08:58:49.782Z,5.3
2022-12-27T09:00:50.410Z,5.3
2022-12-27T09:02:50.248Z,3.8
2022-12-27T09:04:49.669Z,5.1
2022-12-27T09:06:49.660Z,5.1
2022-12-27T09:08:50.467Z,5.6
2022-12-27T09:10:50.268Z,5.6
2022-12-27T09:12:49.706Z,3.3
2022-12-27T09:14:50.297Z,4.3
2022-12-27T09:16:50.108Z,8.2
2022-12-27T09:18:50.528Z,8.2
2022-12-27T09:20:50.340Z,4.8
2022-12-27T09:22:49.963Z,5.3
2022-12-27T09:24:49.598Z,4.5
2022-12-27T09:26:50.198Z,2.9
2022-12-27T09:28:49.800Z,2.9
2022-12-27T09:30:50.482Z,4.2
2022-12-27T09:32:50.436Z,4.5
2022-12-27T09:34:50.225Z,5.0
2022-12-27T09:36:50.279Z,5.0
2022-12-27T09:38:50.121Z,5.8
2022-12-27T09:40:49.696Z,5.9
2022-12-27T09:42:59.795Z,4.9
2022-12-27T09:44:50.478Z,3.4
2022-12-27T09:46:50.331Z,3.4
2022-12-27T09:48:49.969Z,7.3
2022-12-27T09:50:49.570Z,5.1
2022-12-27T09:52:50.195Z,5.1
2022-12-27T09:54:49.809Z,3.8
2022-12-27T09:57:09.923Z,3.3
2022-12-27T09:58:50.526Z,3.3
2022-12-27T10:00:50.230Z,5.1
2022-12-27T10:02:49.873Z,5.3
2022-12-27T10:05:18.914Z,5.3
2022-12-27T10:06:50.258Z,3.2
2022-12-27T10:08:50.110Z,3.2
2022-12-27T10:10:49.713Z,6.2
2022-12-27T10:12:50.316Z,5.3
2022-12-27T10:14:50.000Z,3.9
2022-12-27T10:16:49.954Z,3.9
2022-12-27T10:18:49.575Z,5.0
2022-12-27T10:20:50.426Z,3.1
2022-12-27T10:22:50.001Z,3.5
2022-12-27T10:24:49.627Z,3.7
2022-12-27T10:26:49.644Z,3.7
2022-12-27T10:28:53.102Z,5.2
2022-12-27T10:30:50.158Z,4.7
2022-12-27T10:32:50.084Z,4.1
2022-12-27T10:34:50.297Z,4.1
2022-12-27T10:36:50.323Z,4.3
2022-12-27T10:38:49.932Z,4.2
2022-12-27T10:40:49.722Z,3.3
2022-12-27T10:42:50.136Z,3.3
2022-12-27T10:44:49.752Z,3.0
2022-12-27T10:46:49.882Z,4.9
2022-12-27T10:49:19.278Z,3.5
2022-12-27T10:50:49.835Z,4.8
2022-12-27T10:52:55.756Z,4.8
2022-12-27T10:54:50.424Z,3.4
2022-12-27T10:56:50.271Z,4.2
2022-12-27T10:58:54.894Z,4.0
2022-12-27T11:00:49.887Z,4.1
2022-12-27T11:02:49.761Z,3.5
2022-12-27T11:04:50.547Z,3.5
2022-12-27T11:06:50.510Z,4.8
2022-12-27T11:08:50.133Z,4.8
2022-12-27T11:10:49.763Z,7.5
2022-12-27T11:12:49.555Z,7.5
2022-12-27T11:14:50.176Z,6.0
2022-12-27T11:16:49.982Z,3.1
2022-12-27T11:18:49.638Z,4.1
2022-12-27T11:20:50.426Z,4.5
2022-12-27T11:22:50.057Z,4.5
2022-12-27T11:24:49.853Z,7.1
2022-12-27T11:26:53.628Z,3.3
2022-12-27T11:28:50.063Z,4.0
2022-12-27T11:30:49.720Z,4.0
2022-12-27T11:32:50.324Z,4.0
2022-12-27T11:34:50.315Z,5.9
2022-12-27T11:36:50.166Z,4.0
2022-12-27T11:38:49.751Z,5.1
2022-12-27T11:40:50.176Z,5.1
2022-12-27T11:42:49.790Z,4.0
2022-12-27T11:44:50.387Z,4.0
2022-12-27T11:46:54.003Z,4.6
2022-12-27T11:48:50.373Z,3.0
2022-12-27T11:50:49.859Z,3.0
2022-12-27T11:52:50.436Z,3.0
2022-12-27T11:54:50.080Z,6.0
2022-12-27T11:56:50.085Z,4.0
2022-12-27T11:58:49.708Z,4.3
2022-12-27T12:00:50.311Z,4.3
2022-12-27T12:02:49.982Z,3.6
2022-12-27T12:04:49.938Z,3.0
2022-12-27T12:06:50.164Z,3.7
2022-12-27T12:08:49.772Z,5.2
2022-12-27T12:10:50.151Z,5.2
2022-12-27T12:12:49.799Z,4.6
2022-12-27T12:14:49.640Z,5.5
2022-12-27T12:16:49.888Z,4.5
2022-12-27T12:18:49.831Z,4.1
2022-12-27T12:20:50.889Z,2.9
2022-12-27T12:22:49.671Z,2.9
2022-12-27T12:24:50.490Z,4.3
2022-12-27T12:26:55.638Z,3.9
2022-12-27T12:28:58.936Z,3.9
2022-12-27T12:30:50.344Z,4.2
2022-12-27T12:32:49.953Z,4.2
2022-12-27T12:34:50.172Z,4.0
2022-12-27T12:36:52.629Z,3.7
2022-12-27T12:38:49.592Z,3.7
2022-12-27T12:40:50.186Z,3.9
2022-12-27T12:42:50.011Z,3.9
2022-12-27T12:44:49.628Z,5.6
2022-12-27T12:46:50.432Z,2.2
2022-12-27T12:48:50.073Z,2.2
2022-12-27T12:50:49.671Z,5.4
2022-12-27T12:52:50.482Z,5.4
2022-12-27T12:54:49.865Z,3.3
2022-12-27T12:56:50.139Z,5.9
2022-12-27T12:58:49.720Z,5.2
2022-12-27T13:00:50.398Z,5.1
2022-12-27T13:02:49.618Z,5.1
2022-12-27T13:04:50.375Z,4.0
2022-12-27T13:06:50.388Z,4.2
2022-12-27T13:08:50.017Z,3.5
2022-12-27T13:10:49.643Z,3.5
2022-12-27T13:12:52.772Z,2.8
2022-12-27T13:14:49.848Z,4.3
2022-12-27T13:16:49.760Z,5.0
2022-12-27T13:18:49.661Z,5.0
2022-12-27T13:20:50.283Z,6.0
2022-12-27T13:22:49.697Z,4.4
2022-12-27T13:24:50.288Z,5.3
2022-12-27T13:26:50.155Z,5.3
2022-12-27T13:28:49.748Z,4.2
2022-12-27T13:30:49.591Z,4.9
2022-12-27T13:32:50.357Z,1.9
2022-12-27T13:34:50.419Z,3.4
2022-12-27T13:36:50.458Z,3.4
2022-12-27T13:38:50.005Z,6.0
2022-12-27T13:40:49.641Z,5.7
2022-12-27T13:42:50.257Z,4.2
2022-12-27T13:44:49.865Z,4.1
2022-12-27T13:46:49.887Z,4.1
2022-12-27T13:48:50.470Z,4.5
2022-12-27T13:50:50.110Z,2.0
2022-12-27T13:52:52.233Z,3.6
2022-12-27T13:54:49.921Z,3.8
2022-12-27T13:56:54.678Z,3.7
2022-12-27T13:58:53.563Z,3.7
2022-12-27T14:00:50.346Z,4.6
2022-12-27T14:02:50.111Z,4.1
2022-12-27T14:04:52.353Z,6.2
2022-12-27T14:06:49.787Z,6.2
2022-12-27T14:08:50.235Z,4.5
2022-12-27T14:10:52.766Z,4.1
2022-12-27T14:12:50.446Z,2.7
2022-12-27T14:14:50.058Z,2.7
2022-12-27T14:16:53.284Z,4.3
2022-12-27T14:18:50.063Z,4.3
2022-12-27T14:20:49.808Z,2.6
2022-12-27T14:22:54.059Z,4.0
2022-12-27T14:24:50.157Z,4.5
2022-12-27T14:26:49.602Z,4.5
2022-12-27T14:28:53.500Z,7.5
2022-12-27T14:30:49.825Z,4.7
2022-12-27T14:32:49.623Z,3.8
2022-12-27T14:34:52.210Z,2.0
2022-12-27T14:36:49.611Z,2.0
2022-12-27T14:38:50.258Z,3.7
2022-12-27T14:40:49.896Z,2.6
2022-12-27T14:42:50.468Z,4.0
2022-12-27T14:44:50.097Z,4.0
2022-12-27T14:46:49.959Z,4.0
2022-12-27T14:48:49.932Z,3.3
2022-12-27T14:50:50.598Z,4.2
2022-12-27T14:52:49.557Z,4.2
2022-12-27T14:54:49.955Z,4.9
2022-12-27T14:56:49.802Z,4.9
2022-12-27T14:58:49.613Z,4.0
2022-12-27T15:00:50.199Z,6.0
2022-12-27T15:02:49.979Z,6.0
2022-12-27T15:04:50.270Z,4.4
2022-12-27T15:06:50.285Z,4.4
2022-12-27T15:08:49.991Z,7.7
2022-12-27T15:10:49.595Z,3.3
2022-12-27T15:12:50.178Z,3.2
2022-12-27T15:14:49.821Z,3.2
2022-12-27T15:16:49.817Z,5.1
2022-12-27T15:18:50.564Z,3.2
2022-12-27T15:20:50.252Z,5.2
2022-12-27T15:22:49.903Z,3.8
2022-12-27T15:24:50.489Z,3.8
2022-12-27T15:26:50.488Z,3.2
2022-12-27T15:28:49.916Z,7.0
2022-12-27T15:30:50.628Z,7.0
2022-12-27T15:32:53.155Z,2.7
2022-12-27T15:34:49.562Z,4.3
2022-12-27T15:36:50.352Z,2.3
2022-12-27T15:38:53.812Z,5.4
2022-12-27T15:40:49.819Z,5.4
2022-12-27T15:42:50.413Z,3.3
2022-12-27T15:44:50.077Z,3.3
2022-12-27T15:46:50.092Z,5.9
2022-12-27T15:48:53.592Z,7.3
2022-12-27T15:50:50.479Z,7.3
2022-12-27T15:52:50.104Z,4.3
2022-12-27T15:54:53.595Z,4.9
2022-12-27T15:56:49.931Z,6.6
2022-12-27T15:58:49.749Z,6.3
2022-12-27T16:00:50.361Z,9.6
2022-12-27T16:02:50.084Z,9.6
2022-12-27T16:04:50.387Z,4.3
2022-12-27T16:06:50.396Z,4.6
2022-12-27T16:08:50.190Z,5.3
2022-12-27T16:10:49.851Z,5.3
2022-12-27T16:12:49.667Z,8.3
2022-12-27T16:14:50.274Z,7.1
2022-12-27T16:16:50.283Z,4.7
2022-12-27T16:18:49.884Z,4.7
2022-12-27T16:20:50.498Z,4.7
2022-12-27T16:22:50.302Z,4.6
2022-12-27T16:24:49.939Z,5.7
2022-12-27T16:26:49.953Z,5.7
2022-12-27T16:28:50.543Z,5.7
2022-12-27T16:30:50.156Z,5.1
2022-12-27T16:32:49.780Z,6.3
2022-12-27T16:34:49.806Z,6.1
2022-12-27T16:36:49.813Z,6.4
2022-12-27T16:38:50.428Z,6.4
2022-12-27T16:40:50.246Z,5.5
2022-12-27T16:42:49.865Z,5.5
2022-12-27T16:44:50.467Z,5.7
2022-12-27T16:46:50.493Z,5.9
2022-12-27T16:48:50.491Z,5.9
2022-12-27T16:50:50.320Z,4.2
2022-12-27T16:52:49.956Z,4.2
2022-12-27T16:54:49.725Z,7.8
2022-12-27T16:56:49.773Z,5.1
2022-12-27T16:58:50.378Z,5.1
2022-12-27T17:00:50.189Z,5.8
2022-12-27T17:02:50.002Z,5.8
2022-12-27T17:04:50.229Z,6.4
2022-12-27T17:06:50.051Z,6.4
2022-12-27T17:08:49.641Z,4.2
2022-12-27T17:10:50.488Z,6.2
2022-12-27T17:12:50.057Z,4.6
2022-12-27T17:14:50.005Z,5.7
2022-12-27T17:16:50.187Z,5.6
2022-12-27T17:18:50.095Z,5.6
2022-12-27T17:20:49.739Z,6.6
2022-12-27T17:22:50.148Z,6.6
2022-12-27T17:24:49.954Z,6.7
2022-12-27T17:26:50.005Z,8.1
2022-12-27T17:28:49.608Z,8.1
2022-12-27T17:30:50.197Z,5.1
2022-12-27T17:32:49.822Z,8.4
2022-12-27T17:34:50.038Z,6.9
2022-12-27T17:36:49.833Z,6.3
2022-12-27T17:38:49.666Z,6.3
2022-12-27T17:40:50.291Z,5.8
2022-12-27T17:42:50.119Z,5.6
2022-12-27T17:44:49.982Z,6.5
2022-12-27T17:46:49.947Z,6.5
2022-12-27T17:48:50.560Z,7.7
2022-12-27T17:50:50.193Z,9.0
2022-12-27T17:52:49.764Z,5.2
2022-12-27T17:54:50.365Z,5.2
2022-12-27T17:56:50.181Z,4.8
2022-12-27T17:58:51.734Z,7.1
2022-12-27T18:00:50.268Z,4.0
2022-12-27T18:02:50.254Z,6.6
2022-12-27T18:04:50.475Z,6.6
2022-12-27T18:06:50.443Z,7.2
2022-12-27T18:08:50.075Z,7.2
2022-12-27T18:10:49.694Z,9.0
2022-12-27T18:12:50.489Z,11.6
2022-12-27T18:14:50.173Z,11.6
2022-12-27T18:16:50.176Z,8.0
2022-12-27T18:18:50.146Z,7.5
2022-12-27T18:20:49.764Z,5.3
2022-12-27T18:22:50.364Z,7.8
2022-12-27T18:24:49.798Z,7.4
2022-12-27T18:26:49.806Z,7.4
2022-12-27T18:28:50.429Z,8.0
2022-12-27T18:30:50.014Z,6.7
2022-12-27T18:32:49.718Z,8.7
2022-12-27T18:34:49.685Z,6.1
2022-12-27T18:36:49.660Z,6.1
2022-12-27T18:38:50.275Z,6.3
2022-12-27T18:40:53.016Z,8.7
2022-12-27T18:42:49.726Z,11.1
2022-12-27T18:44:50.146Z,7.6
2022-12-27T18:46:50.179Z,7.6
2022-12-27T18:48:49.775Z,9.4
2022-12-27T18:50:50.396Z,8.9
2022-12-27T18:52:54.800Z,10.9
2022-12-27T18:54:49.630Z,8.5
2022-12-27T18:56:49.633Z,8.5
2022-12-27T18:58:50.231Z,9.2
2022-12-27T19:00:49.891Z,9.9
2022-12-27T19:02:50.304Z,11.0
2022-12-27T19:04:50.093Z,11.0
2022-12-27T19:06:50.121Z,11.0
2022-12-27T19:10:50.522Z,10.6
2022-12-27T19:12:50.114Z,10.6
2022-12-27T19:14:49.980Z,10.7
2022-12-27T19:16:49.773Z,9.1
2022-12-27T19:18:50.399Z,10.9
2022-12-27T19:20:50.022Z,11.3
2022-12-27T19:22:49.655Z,11.8
2022-12-27T19:24:50.433Z,11.8
2022-12-27T19:26:50.441Z,12.0
2022-12-27T19:28:50.063Z,10.4
2022-12-27T19:30:49.676Z,11.7
2022-12-27T19:32:50.266Z,11.7
2022-12-27T19:34:50.315Z,12.9
2022-12-27T19:36:50.352Z,8.9
2022-12-27T19:38:50.158Z,12.1
2022-12-27T19:40:50.559Z,12.0
2022-12-27T19:42:50.355Z,12.0
2022-12-27T19:44:49.818Z,13.6
2022-12-27T19:46:49.583Z,14.6
2022-12-27T19:49:15.853Z,14.4
2022-12-27T19:50:50.185Z,14.7
2022-12-27T19:52:49.827Z,14.7
2022-12-27T19:54:50.504Z,13.5
2022-12-27T19:56:50.481Z,13.7
2022-12-27T19:58:50.101Z,12.5
2022-12-27T20:00:49.734Z,14.5
2022-12-27T20:02:49.802Z,14.5
2022-12-27T20:04:50.532Z,9.6
2022-12-27T20:06:49.791Z,14.1
2022-12-27T20:08:50.380Z,15.8
2022-12-27T20:10:50.149Z,15.9
2022-12-27T20:12:49.780Z,15.9
2022-12-27T20:14:50.388Z,15.4
2022-12-27T20:16:50.450Z,16.8
2022-12-27T20:18:49.596Z,13.1
2022-12-27T20:20:50.229Z,14.7
2022-12-27T20:22:49.834Z,14.7
2022-12-27T20:24:49.678Z,11.8
2022-12-27T20:26:49.685Z,12.9
2022-12-27T20:28:50.269Z,16.5
2022-12-27T20:30:49.925Z,16.5
2022-12-27T20:32:50.532Z,14.8
2022-12-27T20:34:49.732Z,14.8
2022-12-27T20:36:49.753Z,16.2
2022-12-27T20:38:50.385Z,13.2
2022-12-27T20:40:50.009Z,13.2
2022-12-27T20:42:49.591Z,18.0
2022-12-27T20:44:50.194Z,14.7
2022-12-27T20:46:50.221Z,14.7
2022-12-27T20:48:49.842Z,13.9
2022-12-27T20:50:50.459Z,13.9
2022-12-27T20:52:50.033Z,13.9
2022-12-27T20:54:49.694Z,13.9
2022-12-27T20:56:49.699Z,13.9
2022-12-27T20:58:50.321Z,11.4
2022-12-27T21:00:50.133Z,11.4
2022-12-27T21:02:49.913Z,16.2
2022-12-27T21:04:49.930Z,11.6
2022-12-27T21:06:49.769Z,9.9
2022-12-27T21:08:56.129Z,9.5
2022-12-27T21:10:49.995Z,9.5
2022-12-27T21:12:49.601Z,11.1
2022-12-27T21:14:50.228Z,7.0
2022-12-27T21:16:50.282Z,12.3
2022-12-27T21:18:50.246Z,9.0
2022-12-27T21:20:49.902Z,9.0
2022-12-27T21:22:50.494Z,13.6
2022-12-27T21:24:50.115Z,11.8
2022-12-27T21:26:54.651Z,16.9
2022-12-27T21:28:50.324Z,16.9
2022-12-27T21:30:50.024Z,17.1
2022-12-27T21:32:49.956Z,14.8
2022-12-27T21:34:49.980Z,11.9
2022-12-27T21:36:50.003Z,11.9
2022-12-27T21:38:49.633Z,13.0
2022-12-27T21:40:49.633Z,11.9
2022-12-27T21:42:49.647Z,10.9
2022-12-27T21:44:50.224Z,12.1
2022-12-27T21:46:50.286Z,14.3
2022-12-27T21:48:49.887Z,14.3
2022-12-27T21:50:49.930Z,10.6
2022-12-27T21:52:49.911Z,11.3
2022-12-27T21:54:50.494Z,12.6
2022-12-27T21:56:50.536Z,12.6
2022-12-27T21:58:50.189Z,16.4
2022-12-27T22:00:52.401Z,17.4
2022-12-27T22:02:50.184Z,18.8
2022-12-27T22:04:50.210Z,12.5
2022-12-27T22:06:50.230Z,13.2
2022-12-27T22:08:49.825Z,13.2
2022-12-27T22:10:50.423Z,12.7
2022-12-27T22:12:50.034Z,13.4
2022-12-27T22:14:49.659Z,14.2
2022-12-27T22:16:49.700Z,14.2
2022-12-27T22:18:50.287Z,12.9
2022-12-27T22:20:50.111Z,13.8
2022-12-27T22:22:49.717Z,13.8
2022-12-27T22:24:50.338Z,10.1
2022-12-27T22:26:50.573Z,14.1
2022-12-27T22:28:50.127Z,14.1
2022-12-27T22:30:50.007Z,11.7
2022-12-27T22:32:49.808Z,11.7
2022-12-27T22:34:49.803Z,11.9
2022-12-27T22:36:49.824Z,11.9
2022-12-27T22:38:50.443Z,12.7
2022-12-27T22:40:50.287Z,10.6
2022-12-27T22:42:49.879Z,10.6
2022-12-27T22:44:49.702Z,12.7
2022-12-27T22:48:50.241Z,11.2
2022-12-27T22:50:50.008Z,10.7
2022-12-27T22:52:50.537Z,10.7
2022-12-27T22:55:03.818Z,10.1
2022-12-27T22:56:50.352Z,10.1
2022-12-27T22:58:50.182Z,11.8
2022-12-27T23:00:49.820Z,15.6
2022-12-27T23:02:50.441Z,15.6
2022-12-27T23:04:49.889Z,11.9
2022-12-27T23:06:50.049Z,15.4
2022-12-27T23:08:49.666Z,14.5
2022-12-27T23:10:50.240Z,12.2
2022-12-27T23:12:49.882Z,10.4
2022-12-27T23:14:50.529Z,10.4
2022-12-27T23:16:50.491Z,13.7
2022-12-27T23:18:50.111Z,9.9
2022-12-27T23:21:19.598Z,8.9
2022-12-27T23:22:49.551Z,10.2
2022-12-27T23:24:50.165Z,10.2
2022-12-27T23:26:50.196Z,16.9
2022-12-27T23:28:49.793Z,12.7
2022-12-27T23:30:50.407Z,12.6
2022-12-27T23:32:50.412Z,10.8
2022-12-27T23:34:49.686Z,10.8
2022-12-27T23:36:49.677Z,12.8
2022-12-27T23:38:50.470Z,11.7
2022-12-27T23:40:50.076Z,12.7
2022-12-27T23:42:49.695Z,12.7
2022-12-27T23:44:50.111Z,11.1
2022-12-27T23:46:50.020Z,14.7
2022-12-27T23:48:50.140Z,14.9
2022-12-27T23:50:49.756Z,14.3
2022-12-27T23:52:50.368Z,14.3
2022-12-27T23:54:50.200Z,11.0
2022-12-27T23:56:50.015Z,12.0
2022-12-27T23:58:49.613Z,12.3
